Gasquet, California
Current Conditions -  °F | °C
As of 6:56 PM on Saturday 24 Jan 2015 (Local Time) from KCEC Reporting Station
Haze Haze  
Wind Chill: 11°   Ceiling: Unl
Heat Index: 11°   Visibility: 3mi
Dew Point: 11°   Wind: 5mph
Humidity: 97%   Direction: 340°NNW
Pressure: 30.17"   Gusts: NA
Location:  41.85°N, 123.97°W
Report Text: KCEC 250256Z AUTO 34004KT 3SM BR CLR 11/11 A3017 RMK AO2 SLP217 T01110106 56005
Loading
Personal Weather Stations






























Interactive Weather Map New forecast layout! Learn more

10-Day Weather Forecast

Advertisements
Track Severe Weather on mobile